sensor_id;sensor_type;location;lat;lon;timestamp;pressure;altitude;pressure_sealevel;temperature;humidity
6835;BME280;3455;42.150;24.734;2023-04-01T00:01:27;66741.50;;;14.39;59.14
6835;BME280;3455;42.150;24.734;2023-04-01T00:03:54;66757.31;;;14.24;59.22
6835;BME280;3455;42.150;24.734;2023-04-01T00:06:22;66755.66;;;14.38;58.38
6835;BME280;3455;42.150;24.734;2023-04-01T00:08:49;66742.09;;;14.40;58.31
6835;BME280;3455;42.150;24.734;2023-04-01T00:11:16;66708.00;;;14.10;59.05
6835;BME280;3455;42.150;24.734;2023-04-01T00:13:44;66788.56;;;14.29;58.33
6835;BME280;3455;42.150;24.734;2023-04-01T00:16:10;66717.88;;;13.96;59.23
6835;BME280;3455;42.150;24.734;2023-04-01T00:18:39;66700.41;;;13.76;59.78
6835;BME280;3455;42.150;24.734;2023-04-01T00:21:06;66718.69;;;13.83;59.66
6835;BME280;3455;42.150;24.734;2023-04-01T00:23:32;66674.69;;;13.89;59.21
6835;BME280;3455;42.150;24.734;2023-04-01T00:25:59;66741.69;;;14.10;58.33
6835;BME280;3455;42.150;24.734;2023-04-01T00:28:27;66683.97;;;13.75;59.16
6835;BME280;3455;42.150;24.734;2023-04-01T00:30:55;66662.28;;;13.42;60.27
6835;BME280;3455;42.150;24.734;2023-04-01T00:33:21;66618.78;;;13.21;60.51
6835;BME280;3455;42.150;24.734;2023-04-01T00:35:49;66662.50;;;13.51;59.72
6835;BME280;3455;42.150;24.734;2023-04-01T00:38:16;66661.34;;;13.39;59.70
6835;BME280;3455;42.150;24.734;2023-04-01T00:40:45;66590.72;;;13.05;61.17
6835;BME280;3455;42.150;24.734;2023-04-01T00:43:14;66623.41;;;13.25;60.73
6835;BME280;3455;42.150;24.734;2023-04-01T00:45:45;66639.97;;;13.31;60.89
6835;BME280;3455;42.150;24.734;2023-04-01T00:48:15;66655.09;;;13.49;60.72
6835;BME280;3455;42.150;24.734;2023-04-01T00:50:46;66659.50;;;13.44;60.79
6835;BME280;3455;42.150;24.734;2023-04-01T00:53:16;66665.28;;;13.49;60.89
6835;BME280;3455;42.150;24.734;2023-04-01T00:55:49;66688.16;;;13.60;60.47
6835;BME280;3455;42.150;24.734;2023-04-01T00:58:21;66640.75;;;13.41;61.08
6835;BME280;3455;42.150;24.734;2023-04-01T01:00:50;66683.81;;;13.43;61.16
6835;BME280;3455;42.150;24.734;2023-04-01T01:03:17;66643.88;;;13.41;61.01
6835;BME280;3455;42.150;24.734;2023-04-01T01:05:57;66672.91;;;13.49;60.73
6835;BME280;3455;42.150;24.734;2023-04-01T01:08:37;66657.88;;;13.24;61.56
6835;BME280;3455;42.150;24.734;2023-04-01T01:11:08;66623.31;;;13.21;62.20
6835;BME280;3455;42.150;24.734;2023-04-01T01:13:43;66682.84;;;13.51;61.41
6835;BME280;3455;42.150;24.734;2023-04-01T01:16:21;66723.41;;;13.92;60.27
6835;BME280;3455;42.150;24.734;2023-04-01T01:18:53;66648.97;;;13.53;61.53
6835;BME280;3455;42.150;24.734;2023-04-01T01:21:45;66646.44;;;13.41;62.12
6835;BME280;3455;42.150;24.734;2023-04-01T01:24:49;66718.72;;;13.49;61.83
6835;BME280;3455;42.150;24.734;2023-04-01T01:27:20;66629.19;;;13.31;62.07
6835;BME280;3455;42.150;24.734;2023-04-01T01:30:18;66677.41;;;13.60;60.99
6835;BME280;3455;42.150;24.734;2023-04-01T01:35:49;66681.03;;;13.45;60.55
6835;BME280;3455;42.150;24.734;2023-04-01T01:38:18;66672.47;;;13.42;60.16
6835;BME280;3455;42.150;24.734;2023-04-01T01:40:49;66679.16;;;13.39;60.50
6835;BME280;3455;42.150;24.734;2023-04-01T01:43:21;66657.63;;;13.49;59.71
6835;BME280;3455;42.150;24.734;2023-04-01T01:45:52;66672.69;;;13.17;60.66
6835;BME280;3455;42.150;24.734;2023-04-01T01:48:20;66642.84;;;13.34;60.17
6835;BME280;3455;42.150;24.734;2023-04-01T01:50:49;66669.44;;;13.35;59.64
6835;BME280;3455;42.150;24.734;2023-04-01T01:53:16;66574.47;;;12.75;61.46
6835;BME280;3455;42.150;24.734;2023-04-01T01:55:44;66631.06;;;12.92;61.05
6835;BME280;3455;42.150;24.734;2023-04-01T01:58:14;66634.28;;;13.08;60.70
6835;BME280;3455;42.150;24.734;2023-04-01T02:00:47;66653.72;;;13.16;60.03
6835;BME280;3455;42.150;24.734;2023-04-01T02:03:16;66641.69;;;13.33;59.71
6835;BME280;3455;42.150;24.734;2023-04-01T02:05:44;66667.94;;;13.20;59.84
6835;BME280;3455;42.150;24.734;2023-04-01T02:08:14;66631.75;;;13.31;59.50
6835;BME280;3455;42.150;24.734;2023-04-01T02:10:46;66640.31;;;13.00;60.30
6835;BME280;3455;42.150;24.734;2023-04-01T02:13:18;66638.91;;;13.35;59.39
6835;BME280;3455;42.150;24.734;2023-04-01T02:15:49;66657.88;;;13.24;59.61
6835;BME280;3455;42.150;24.734;2023-04-01T02:18:19;66619.97;;;13.11;60.05
6835;BME280;3455;42.150;24.734;2023-04-01T02:20:46;66665.53;;;13.36;59.17
6835;BME280;3455;42.150;24.734;2023-04-01T02:23:14;66686.78;;;13.28;59.41
6835;BME280;3455;42.150;24.734;2023-04-01T02:25:43;66605.84;;;13.01;59.34
6835;BME280;3455;42.150;24.734;2023-04-01T02:28:10;66618.34;;;13.03;59.59
6835;BME280;3455;42.150;24.734;2023-04-01T02:30:42;66651.16;;;13.28;58.55
6835;BME280;3455;42.150;24.734;2023-04-01T02:33:10;66688.41;;;13.47;57.70
6835;BME280;3455;42.150;24.734;2023-04-01T02:35:37;66674.06;;;13.39;58.50
6835;BME280;3455;42.150;24.734;2023-04-01T02:38:05;66666.88;;;13.46;57.74
6835;BME280;3455;42.150;24.734;2023-04-01T02:40:43;66643.75;;;13.25;58.44
6835;BME280;3455;42.150;24.734;2023-04-01T02:43:10;66618.81;;;12.76;59.62
6835;BME280;3455;42.150;24.734;2023-04-01T02:45:36;66611.88;;;12.93;59.45
6835;BME280;3455;42.150;24.734;2023-04-01T02:48:04;66626.69;;;12.97;59.81
6835;BME280;3455;42.150;24.734;2023-04-01T02:50:31;66618.13;;;12.94;59.44
6835;BME280;3455;42.150;24.734;2023-04-01T02:52:57;66573.06;;;12.76;60.34
6835;BME280;3455;42.150;24.734;2023-04-01T02:55:24;66586.56;;;12.75;60.60
6835;BME280;3455;42.150;24.734;2023-04-01T02:57:53;66610.63;;;12.87;60.15
6835;BME280;3455;42.150;24.734;2023-04-01T03:00:19;66593.63;;;12.74;60.21
6835;BME280;3455;42.150;24.734;2023-04-01T03:02:46;66593.63;;;12.63;60.12
6835;BME280;3455;42.150;24.734;2023-04-01T03:05:13;66575.84;;;12.52;60.70
6835;BME280;3455;42.150;24.734;2023-04-01T03:07:40;66557.13;;;12.49;60.92
6835;BME280;3455;42.150;24.734;2023-04-01T03:10:08;66608.88;;;12.63;60.76
6835;BME280;3455;42.150;24.734;2023-04-01T03:12:34;66639.75;;;12.77;60.18
6835;BME280;3455;42.150;24.734;2023-04-01T03:15:03;66597.78;;;12.71;60.67
6835;BME280;3455;42.150;24.734;2023-04-01T03:17:30;66600.47;;;12.64;60.32
6835;BME280;3455;42.150;24.734;2023-04-01T03:19:57;66611.44;;;12.74;60.46
6835;BME280;3455;42.150;24.734;2023-04-01T03:22:23;66611.19;;;12.65;60.20
6835;BME280;3455;42.150;24.734;2023-04-01T03:24:50;66636.84;;;12.74;59.95
6835;BME280;3455;42.150;24.734;2023-04-01T03:27:17;66621.13;;;12.78;59.63
6835;BME280;3455;42.150;24.734;2023-04-01T03:29:44;66599.88;;;12.87;59.35
6835;BME280;3455;42.150;24.734;2023-04-01T03:32:12;66621.13;;;13.01;59.49
6835;BME280;3455;42.150;24.734;2023-04-01T03:34:39;66627.63;;;12.89;59.75
6835;BME280;3455;42.150;24.734;2023-04-01T03:37:05;66646.31;;;13.03;60.25
6835;BME280;3455;42.150;24.734;2023-04-01T03:39:32;66626.22;;;13.01;60.84
6835;BME280;3455;42.150;24.734;2023-04-01T03:42:00;66614.88;;;13.00;60.79
6835;BME280;3455;42.150;24.734;2023-04-01T03:44:30;66622.75;;;12.98;61.12
6835;BME280;3455;42.150;24.734;2023-04-01T03:46:57;66675.81;;;13.18;60.45
6835;BME280;3455;42.150;24.734;2023-04-01T03:49:25;66639.63;;;12.95;61.42
6835;BME280;3455;42.150;24.734;2023-04-01T03:51:52;66607.03;;;12.79;61.63
6835;BME280;3455;42.150;24.734;2023-04-01T03:54:18;66601.13;;;12.92;61.25
6835;BME280;3455;42.150;24.734;2023-04-01T03:56:46;66618.59;;;12.90;61.04
6835;BME280;3455;42.150;24.734;2023-04-01T03:59:12;66593.88;;;12.72;61.59
6835;BME280;3455;42.150;24.734;2023-04-01T04:01:39;66623.69;;;12.67;62.23
6835;BME280;3455;42.150;24.734;2023-04-01T04:04:06;66629.00;;;12.76;61.67
6835;BME280;3455;42.150;24.734;2023-04-01T04:06:34;66620.31;;;12.80;61.49
6835;BME280;3455;42.150;24.734;2023-04-01T04:09:01;66605.31;;;12.78;61.51
6835;BME280;3455;42.150;24.734;2023-04-01T04:11:30;66648.19;;;12.98;61.27
6835;BME280;3455;42.150;24.734;2023-04-01T04:13:57;66651.63;;;13.01;60.76
6835;BME280;3455;42.150;24.734;2023-04-01T04:16:24;66644.38;;;12.92;61.07
6835;BME280;3455;42.150;24.734;2023-04-01T04:18:51;66630.72;;;12.89;61.17
6835;BME280;3455;42.150;24.734;2023-04-01T04:21:17;66615.81;;;12.92;61.49
6835;BME280;3455;42.150;24.734;2023-04-01T04:23:46;66647.34;;;13.11;61.29
6835;BME280;3455;42.150;24.734;2023-04-01T04:26:14;66670.63;;;13.36;60.59
6835;BME280;3455;42.150;24.734;2023-04-01T04:28:41;66687.16;;;13.41;59.90
6835;BME280;3455;42.150;24.734;2023-04-01T04:31:08;66720.00;;;13.66;59.07
6835;BME280;3455;42.150;24.734;2023-04-01T04:33:35;66729.13;;;13.81;58.85
6835;BME280;3455;42.150;24.734;2023-04-01T04:36:03;66729.13;;;13.81;58.92
6835;BME280;3455;42.150;24.734;2023-04-01T04:38:30;66706.88;;;13.75;59.09
6835;BME280;3455;42.150;24.734;2023-04-01T04:40:59;66726.13;;;13.62;59.63
6835;BME280;3455;42.150;24.734;2023-04-01T04:43:25;66714.28;;;13.88;58.92
6835;BME280;3455;42.150;24.734;2023-04-01T04:45:52;66750.72;;;14.20;58.39
6835;BME280;3455;42.150;24.734;2023-04-01T04:48:19;66785.09;;;14.37;57.90
6835;BME280;3455;42.150;24.734;2023-04-01T04:50:47;66835.72;;;14.57;57.22
6835;BME280;3455;42.150;24.734;2023-04-01T04:53:15;66802.00;;;14.57;57.18
6835;BME280;3455;42.150;24.734;2023-04-01T04:55:45;66806.81;;;14.70;56.99
6835;BME280;3455;42.150;24.734;2023-04-01T04:58:14;66816.34;;;14.65;57.07
6835;BME280;3455;42.150;24.734;2023-04-01T05:00:40;66842.00;;;14.97;56.60
6835;BME280;3455;42.150;24.734;2023-04-01T05:03:08;66828.28;;;15.16;55.67
6835;BME280;3455;42.150;24.734;2023-04-01T05:05:35;66934.53;;;15.25;55.02
6835;BME280;3455;42.150;24.734;2023-04-01T05:08:02;66903.84;;;15.47;55.00
6835;BME280;3455;42.150;24.734;2023-04-01T05:10:30;66925.13;;;15.84;53.71
6835;BME280;3455;42.150;24.734;2023-04-01T05:12:57;66994.25;;;15.77;54.20
6835;BME280;3455;42.150;24.734;2023-04-01T05:15:26;66980.09;;;16.06;53.31
6835;BME280;3455;42.150;24.734;2023-04-01T05:17:52;66939.75;;;15.79;52.74
6835;BME280;3455;42.150;24.734;2023-04-01T05:20:19;66894.84;;;15.26;52.94
6835;BME280;3455;42.150;24.734;2023-04-01T05:22:46;66875.09;;;15.31;53.11
6835;BME280;3455;42.150;24.734;2023-04-01T05:25:13;66879.03;;;15.41;52.91
6835;BME280;3455;42.150;24.734;2023-04-01T05:27:40;66903.06;;;15.37;53.11
6835;BME280;3455;42.150;24.734;2023-04-01T05:30:07;66863.75;;;15.30;53.23
6835;BME280;3455;42.150;24.734;2023-04-01T05:32:35;66888.78;;;15.34;53.29
6835;BME280;3455;42.150;24.734;2023-04-01T05:35:03;66874.16;;;14.89;54.49
6835;BME280;3455;42.150;24.734;2023-04-01T05:37:30;66801.94;;;14.79;54.86
6835;BME280;3455;42.150;24.734;2023-04-01T05:39:56;66805.66;;;14.81;54.48
6835;BME280;3455;42.150;24.734;2023-04-01T05:42:24;66886.53;;;15.09;54.73
6835;BME280;3455;42.150;24.734;2023-04-01T05:44:51;66886.72;;;15.30;54.00
6835;BME280;3455;42.150;24.734;2023-04-01T05:47:17;66846.84;;;15.10;54.26
6835;BME280;3455;42.150;24.734;2023-04-01T05:49:45;66902.00;;;15.41;54.32
6835;BME280;3455;42.150;24.734;2023-04-01T05:52:12;66872.63;;;15.47;54.21
6835;BME280;3455;42.150;24.734;2023-04-01T05:54:39;66868.91;;;15.07;55.74
6835;BME280;3455;42.150;24.734;2023-04-01T05:57:06;66812.63;;;14.75;56.81
6835;BME280;3455;42.150;24.734;2023-04-01T05:59:32;66836.03;;;14.83;56.38
6835;BME280;3455;42.150;24.734;2023-04-01T06:02:00;66800.34;;;14.71;57.42
6835;BME280;3455;42.150;24.734;2023-04-01T06:04:32;66848.50;;;15.07;56.49
6835;BME280;3455;42.150;24.734;2023-04-01T06:07:08;66920.53;;;15.57;55.23
6835;BME280;3455;42.150;24.734;2023-04-01T06:09:36;66901.06;;;15.49;55.31
6835;BME280;3455;42.150;24.734;2023-04-01T06:12:25;66942.78;;;15.86;54.59
6835;BME280;3455;42.150;24.734;2023-04-01T06:15:10;67026.75;;;16.33;53.20
6835;BME280;3455;42.150;24.734;2023-04-01T06:17:47;67053.84;;;16.64;52.11
6835;BME280;3455;42.150;24.734;2023-04-01T06:20:23;67041.16;;;16.69;51.42
6835;BME280;3455;42.150;24.734;2023-04-01T06:23:15;66945.94;;;16.03;51.80
6835;BME280;3455;42.150;24.734;2023-04-01T06:26:00;66969.88;;;16.06;52.93
6835;BME280;3455;42.150;24.734;2023-04-01T06:28:47;67047.13;;;16.56;52.10
6835;BME280;3455;42.150;24.734;2023-04-01T06:31:31;67085.88;;;16.97;51.00
6835;BME280;3455;42.150;24.734;2023-04-01T06:34:13;67056.34;;;16.87;51.33
6835;BME280;3455;42.150;24.734;2023-04-01T06:36:51;67030.81;;;16.64;51.74
6835;BME280;3455;42.150;24.734;2023-04-01T06:39:38;67022.69;;;16.57;52.38
6835;BME280;3455;42.150;24.734;2023-04-01T06:42:26;67007.84;;;16.53;52.12
6835;BME280;3455;42.150;24.734;2023-04-01T06:45:05;67037.75;;;16.70;51.80
6835;BME280;3455;42.150;24.734;2023-04-01T06:47:43;67058.59;;;17.00;51.15
6835;BME280;3455;42.150;24.734;2023-04-01T06:50:19;67101.09;;;17.31;50.61
6835;BME280;3455;42.150;24.734;2023-04-01T06:52:56;67127.56;;;17.45;49.72
6835;BME280;3455;42.150;24.734;2023-04-01T06:55:32;67168.81;;;17.98;48.89
6835;BME280;3455;42.150;24.734;2023-04-01T06:58:05;67085.91;;;16.86;51.09
6835;BME280;3455;42.150;24.734;2023-04-01T07:00:35;67174.19;;;17.96;48.79
6835;BME280;3455;42.150;24.734;2023-04-01T07:03:10;67186.63;;;18.20;48.74
6835;BME280;3455;42.150;24.734;2023-04-01T07:05:42;67143.50;;;17.73;49.13
6835;BME280;3455;42.150;24.734;2023-04-01T07:08:12;67185.59;;;17.97;48.87
6835;BME280;3455;42.150;24.734;2023-04-01T07:10:46;67232.28;;;18.36;47.93
6835;BME280;3455;42.150;24.734;2023-04-01T07:13:19;67202.22;;;18.29;47.97
6835;BME280;3455;42.150;24.734;2023-04-01T07:15:55;67211.22;;;18.24;48.00
6835;BME280;3455;42.150;24.734;2023-04-01T07:18:30;67218.50;;;18.17;48.64
6835;BME280;3455;42.150;24.734;2023-04-01T07:20:59;67228.09;;;18.55;47.90
6835;BME280;3455;42.150;24.734;2023-04-01T07:23:31;67287.66;;;19.10;46.19
6835;BME280;3455;42.150;24.734;2023-04-01T07:26:08;67350.47;;;19.11;46.30
6835;BME280;3455;42.150;24.734;2023-04-01T07:28:37;67301.91;;;19.09;46.38
6835;BME280;3455;42.150;24.734;2023-04-01T07:31:13;67264.06;;;18.71;47.20
6835;BME280;3455;42.150;24.734;2023-04-01T07:33:49;67178.50;;;18.13;48.24
6835;BME280;3455;42.150;24.734;2023-04-01T07:36:23;67223.50;;;18.39;48.16
6835;BME280;3455;42.150;24.734;2023-04-01T07:39:00;67337.25;;;19.35;46.21
6835;BME280;3455;42.150;24.734;2023-04-01T07:41:34;67386.38;;;19.65;45.45
6835;BME280;3455;42.150;24.734;2023-04-01T07:44:11;67358.88;;;19.48;46.39
6835;BME280;3455;42.150;24.734;2023-04-01T07:46:53;67393.53;;;19.80;45.37
6835;BME280;3455;42.150;24.734;2023-04-01T07:49:27;67417.84;;;18.73;47.03
6835;BME280;3455;42.150;24.734;2023-04-01T07:52:00;67358.91;;;19.63;46.15
6835;BME280;3455;42.150;24.734;2023-04-01T07:54:33;67503.38;;;20.73;43.10
6835;BME280;3455;42.150;24.734;2023-04-01T07:57:09;67597.81;;;21.33;41.87
6835;BME280;3455;42.150;24.734;2023-04-01T07:59:45;67501.03;;;20.71;42.92
6835;BME280;3455;42.150;24.734;2023-04-01T08:02:26;67464.28;;;20.34;43.42
6835;BME280;3455;42.150;24.734;2023-04-01T08:05:03;67419.47;;;20.21;43.93
6835;BME280;3455;42.150;24.734;2023-04-01T08:07:34;67429.84;;;20.10;44.88
6835;BME280;3455;42.150;24.734;2023-04-01T08:10:11;67309.38;;;19.58;45.62
6835;BME280;3455;42.150;24.734;2023-04-01T08:12:48;67417.63;;;19.83;45.61
6835;BME280;3455;42.150;24.734;2023-04-01T08:15:21;67379.84;;;19.82;44.92
6835;BME280;3455;42.150;24.734;2023-04-01T08:18:03;67388.06;;;19.08;46.83
6835;BME280;3455;42.150;24.734;2023-04-01T08:20:36;67334.13;;;19.08;47.09
6835;BME280;3455;42.150;24.734;2023-04-01T08:23:07;67234.47;;;18.60;48.59
6835;BME280;3455;42.150;24.734;2023-04-01T08:25:40;67236.28;;;18.66;47.71
6835;BME280;3455;42.150;24.734;2023-04-01T08:28:17;67253.88;;;18.75;47.99
6835;BME280;3455;42.150;24.734;2023-04-01T08:30:50;67253.09;;;18.65;48.43
6835;BME280;3455;42.150;24.734;2023-04-01T08:33:23;67283.31;;;18.92;47.81
6835;BME280;3455;42.150;24.734;2023-04-01T08:35:54;67150.38;;;17.75;50.19
6835;BME280;3455;42.150;24.734;2023-04-01T08:38:28;67131.59;;;17.76;51.25
6835;BME280;3455;42.150;24.734;2023-04-01T08:44:12;67273.84;;;18.75;49.04
6835;BME280;3455;42.150;24.734;2023-04-01T08:47:04;67353.16;;;19.31;47.49
6835;BME280;3455;42.150;24.734;2023-04-01T08:49:51;67307.63;;;19.09;47.80
6835;BME280;3455;42.150;24.734;2023-04-01T08:52:39;67445.84;;;19.95;46.09
6835;BME280;3455;42.150;24.734;2023-04-01T08:55:36;67448.03;;;20.19;45.38
6835;BME280;3455;42.150;24.734;2023-04-01T08:58:27;67494.38;;;20.51;43.99
6835;BME280;3455;42.150;24.734;2023-04-01T09:01:11;67521.81;;;20.80;43.14
6835;BME280;3455;42.150;24.734;2023-04-01T09:03:48;67516.22;;;20.57;43.81
6835;BME280;3455;42.150;24.734;2023-04-01T09:06:38;67333.44;;;19.45;46.23
6835;BME280;3455;42.150;24.734;2023-04-01T09:12:38;67425.25;;;19.95;45.30
6835;BME280;3455;42.150;24.734;2023-04-01T09:15:50;67554.91;;;21.05;42.85
6835;BME280;3455;42.150;24.734;2023-04-01T09:18:36;67549.66;;;21.00;42.57
6835;BME280;3455;42.150;24.734;2023-04-01T09:21:22;67421.44;;;20.05;44.45
6835;BME280;3455;42.150;24.734;2023-04-01T09:24:21;67472.50;;;20.30;44.67
6835;BME280;3455;42.150;24.734;2023-04-01T09:27:02;67430.91;;;20.22;44.29
6835;BME280;3455;42.150;24.734;2023-04-01T09:29:45;67415.72;;;20.05;44.59
6835;BME280;3455;42.150;24.734;2023-04-01T09:32:39;67433.66;;;20.16;44.88
6835;BME280;3455;42.150;24.734;2023-04-01T09:35:21;67396.22;;;20.01;45.42
6835;BME280;3455;42.150;24.734;2023-04-01T09:37:53;67413.03;;;20.00;45.12
6835;BME280;3455;42.150;24.734;2023-04-01T09:40:33;67485.25;;;20.84;43.59
6835;BME280;3455;42.150;24.734;2023-04-01T09:43:21;67542.59;;;20.73;43.52
6835;BME280;3455;42.150;24.734;2023-04-01T09:46:02;67449.84;;;20.26;44.21
6835;BME280;3455;42.150;24.734;2023-04-01T09:51:55;67495.22;;;20.66;44.33
6835;BME280;3455;42.150;24.734;2023-04-01T09:54:37;67540.53;;;21.01;43.78
6835;BME280;3455;42.150;24.734;2023-04-01T10:04:03;67689.19;;;22.09;40.61
6835;BME280;3455;42.150;24.734;2023-04-01T10:07:06;67648.72;;;21.92;40.86
6835;BME280;3455;42.150;24.734;2023-04-01T10:10:14;67686.69;;;22.30;40.54
6835;BME280;3455;42.150;24.734;2023-04-01T10:13:02;67699.09;;;22.18;40.23
6835;BME280;3455;42.150;24.734;2023-04-01T10:15:57;67720.31;;;22.19;40.65
6835;BME280;3455;42.150;24.734;2023-04-01T10:18:40;67705.84;;;22.42;40.05
6835;BME280;3455;42.150;24.734;2023-04-01T10:21:20;67715.75;;;22.19;40.53
6835;BME280;3455;42.150;24.734;2023-04-01T10:27:16;67628.94;;;21.74;41.60
6835;BME280;3455;42.150;24.734;2023-04-01T10:30:06;67724.25;;;21.97;40.74
6835;BME280;3455;42.150;24.734;2023-04-01T10:33:15;67665.03;;;22.38;40.24
6835;BME280;3455;42.150;24.734;2023-04-01T10:36:22;67579.50;;;21.35;41.85
6835;BME280;3455;42.150;24.734;2023-04-01T10:39:27;67591.56;;;21.53;41.69
6835;BME280;3455;42.150;24.734;2023-04-01T10:45:45;67828.03;;;22.25;40.74
6835;BME280;3455;42.150;24.734;2023-04-01T10:48:52;67707.81;;;22.58;40.44
6835;BME280;3455;42.150;24.734;2023-04-01T10:51:43;67634.94;;;21.89;40.06
6835;BME280;3455;42.150;24.734;2023-04-01T10:54:42;67869.88;;;23.64;37.90
6835;BME280;3455;42.150;24.734;2023-04-01T10:57:33;67862.09;;;23.43;38.07
6835;BME280;3455;42.150;24.734;2023-04-01T11:00:18;67899.56;;;24.01;36.89
6835;BME280;3455;42.150;24.734;2023-04-01T11:03:21;68063.28;;;25.02;35.51
6835;BME280;3455;42.150;24.734;2023-04-01T11:09:32;68268.13;;;26.50;33.56
6835;BME280;3455;42.150;24.734;2023-04-01T11:12:42;68327.09;;;26.15;33.32
6835;BME280;3455;42.150;24.734;2023-04-01T11:15:42;68610.19;;;28.81;29.59
6835;BME280;3455;42.150;24.734;2023-04-01T11:24:55;69093.53;;;31.93;25.56
6835;BME280;3455;42.150;24.734;2023-04-01T11:27:48;69174.41;;;32.22;25.57
6835;BME280;3455;42.150;24.734;2023-04-01T11:30:29;69226.25;;;32.58;24.94
6835;BME280;3455;42.150;24.734;2023-04-01T11:33:02;68874.44;;;30.47;26.28
6835;BME280;3455;42.150;24.734;2023-04-01T11:35:52;68875.91;;;30.72;27.02
6835;BME280;3455;42.150;24.734;2023-04-01T11:38:31;69172.84;;;32.34;24.69
6835;BME280;3455;42.150;24.734;2023-04-01T11:41:13;69226.97;;;32.68;24.63
6835;BME280;3455;42.150;24.734;2023-04-01T11:43:52;69438.19;;;33.83;23.05
6835;BME280;3455;42.150;24.734;2023-04-01T11:46:24;69390.09;;;33.68;23.09
6835;BME280;3455;42.150;24.734;2023-04-01T11:49:00;69105.28;;;31.98;24.74
6835;BME280;3455;42.150;24.734;2023-04-01T11:51:43;69116.66;;;32.17;24.89
6835;BME280;3455;42.150;24.734;2023-04-01T11:54:24;68989.66;;;31.34;25.44
6835;BME280;3455;42.150;24.734;2023-04-01T11:57:03;69090.31;;;31.47;25.51
6835;BME280;3455;42.150;24.734;2023-04-01T12:00:03;68756.91;;;29.95;27.23
6835;BME280;3455;42.150;24.734;2023-04-01T12:02:43;68495.53;;;28.28;30.03
6835;BME280;3455;42.150;24.734;2023-04-01T12:05:34;68253.59;;;26.62;32.32
6835;BME280;3455;42.150;24.734;2023-04-01T12:08:19;68262.41;;;26.54;32.99
6835;BME280;3455;42.150;24.734;2023-04-01T12:10:55;68152.72;;;25.80;33.73
6835;BME280;3455;42.150;24.734;2023-04-01T12:13:36;68100.28;;;25.64;34.84
6835;BME280;3455;42.150;24.734;2023-04-01T12:16:28;68030.47;;;25.05;35.68
6835;BME280;3455;42.150;24.734;2023-04-01T12:19:00;68001.84;;;24.80;36.31
6835;BME280;3455;42.150;24.734;2023-04-01T12:21:35;68078.66;;;24.72;35.89
6835;BME280;3455;42.150;24.734;2023-04-01T12:27:02;68214.06;;;26.66;33.17
6835;BME280;3455;42.150;24.734;2023-04-01T12:29:53;68709.78;;;29.49;29.04
6835;BME280;3455;42.150;24.734;2023-04-01T12:32:31;68814.44;;;30.61;27.67
6835;BME280;3455;42.150;24.734;2023-04-01T12:35:15;68878.00;;;30.55;27.71
6835;BME280;3455;42.150;24.734;2023-04-01T12:37:50;68723.31;;;29.61;28.44
6835;BME280;3455;42.150;24.734;2023-04-01T12:40:26;68368.09;;;27.65;31.31
6835;BME280;3455;42.150;24.734;2023-04-01T12:43:08;68237.31;;;26.36;33.20
6835;BME280;3455;42.150;24.734;2023-04-01T12:45:47;68035.72;;;25.10;36.32
6835;BME280;3455;42.150;24.734;2023-04-01T12:48:51;68142.81;;;25.72;35.74
6835;BME280;3455;42.150;24.734;2023-04-01T12:51:35;68104.88;;;25.43;35.77
6835;BME280;3455;42.150;24.734;2023-04-01T12:54:25;67990.00;;;24.97;36.64
6835;BME280;3455;42.150;24.734;2023-04-01T12:57:08;68014.88;;;24.64;37.64
6835;BME280;3455;42.150;24.734;2023-04-01T13:00:03;68154.94;;;25.73;36.01
6835;BME280;3455;42.150;24.734;2023-04-01T13:02:46;68171.16;;;25.78;35.54
6835;BME280;3455;42.150;24.734;2023-04-01T13:05:53;68055.03;;;25.27;35.49
6835;BME280;3455;42.150;24.734;2023-04-01T13:08:34;68101.38;;;25.40;35.56
6835;BME280;3455;42.150;24.734;2023-04-01T13:11:18;68379.81;;;27.34;33.70
6835;BME280;3455;42.150;24.734;2023-04-01T13:14:03;68201.97;;;26.28;33.80
6835;BME280;3455;42.150;24.734;2023-04-01T13:16:37;68302.69;;;26.44;34.11
6835;BME280;3455;42.150;24.734;2023-04-01T13:19:09;68407.81;;;27.49;31.34
6835;BME280;3455;42.150;24.734;2023-04-01T13:21:51;68082.66;;;25.23;34.28
6835;BME280;3455;42.150;24.734;2023-04-01T13:24:29;67911.56;;;24.14;36.07
6835;BME280;3455;42.150;24.734;2023-04-01T13:27:03;67940.66;;;24.35;36.40
6835;BME280;3455;42.150;24.734;2023-04-01T13:29:34;67892.00;;;23.79;37.38
6835;BME280;3455;42.150;24.734;2023-04-01T13:32:18;67831.38;;;23.30;38.60
6835;BME280;3455;42.150;24.734;2023-04-01T13:34:55;67722.91;;;22.66;39.31
6835;BME280;3455;42.150;24.734;2023-04-01T13:37:44;67581.59;;;21.39;42.10
6835;BME280;3455;42.150;24.734;2023-04-01T13:40:24;67502.53;;;20.90;43.41
6835;BME280;3455;42.150;24.734;2023-04-01T13:42:56;67501.38;;;20.73;44.06
6835;BME280;3455;42.150;24.734;2023-04-01T13:45:26;67517.59;;;20.99;45.89
6835;BME280;3455;42.150;24.734;2023-04-01T13:48:25;67528.13;;;20.81;46.16
6835;BME280;3455;42.150;24.734;2023-04-01T13:51:23;67526.13;;;20.97;45.25
6835;BME280;3455;42.150;24.734;2023-04-01T13:54:17;67447.94;;;20.31;46.34
6835;BME280;3455;42.150;24.734;2023-04-01T13:56:51;67374.97;;;19.96;47.52
6835;BME280;3455;42.150;24.734;2023-04-01T14:02:47;67349.63;;;19.55;49.50
6835;BME280;3455;42.150;24.734;2023-04-01T14:05:35;67411.97;;;19.88;51.46
6835;BME280;3455;42.150;24.734;2023-04-01T14:08:14;67329.91;;;19.11;53.12
6835;BME280;3455;42.150;24.734;2023-04-01T14:10:48;67355.66;;;19.42;53.52
6835;BME280;3455;42.150;24.734;2023-04-01T14:13:24;67298.03;;;19.30;52.53
6835;BME280;3455;42.150;24.734;2023-04-01T14:16:12;67329.38;;;19.42;52.32
6835;BME280;3455;42.150;24.734;2023-04-01T14:18:56;67474.28;;;20.79;48.87
6835;BME280;3455;42.150;24.734;2023-04-01T14:21:33;67613.38;;;21.54;47.00
6835;BME280;3455;42.150;24.734;2023-04-01T14:24:15;67638.19;;;21.78;45.28
6835;BME280;3455;42.150;24.734;2023-04-01T14:27:03;67557.88;;;21.44;45.14
6835;BME280;3455;42.150;24.734;2023-04-01T14:29:40;67792.47;;;23.05;41.93
6835;BME280;3455;42.150;24.734;2023-04-01T14:32:16;67762.50;;;22.65;42.23
6835;BME280;3455;42.150;24.734;2023-04-01T14:34:55;67687.19;;;22.26;43.99
6835;BME280;3455;42.150;24.734;2023-04-01T14:37:40;67851.34;;;23.20;42.22
6835;BME280;3455;42.150;24.734;2023-04-01T14:40:33;67617.63;;;21.51;44.85